Terminal Aerodrome Forecast
Issued by NWS Topeka, KS

Home | Current Version | Previous Version | Graphics & Text | Print | Product List | Glossary On
Versions: 1 2 3 4 5 6 7 8 9 10 11 12 13 14 15 16 17
000
FTUS43 KTOP 271300 AAA
TAFTOP
TAF AMD
KTOP 271356Z 2714/2812 29011KT P6SM OVC015
      TEMPO 2714/2718 SCT015 BKN120
     FM271800 32009KT P6SM BKN035
     FM272300 31002KT P6SM FEW200=

USA.gov is the U.S. government's official web portal to all federal, state and local government web resources and services.